Date,TemperatureHighF,TemperatureAvgF,TemperatureLowF,DewpointHighF,DewpointAvgF,DewpointLowF,HumidityHigh,HumidityAvg,HumidityLow,PressureMaxIn,PressureMinIn,WindSpeedMaxMPH,WindSpeedAvgMPH,GustSpeedMaxMPH,PrecipitationSumIn
2013-10-1,70,61,50,39,33,27,60,36,27,29.85,29.58,20,4,0,0.00
2013-10-2,80,61,47,43,37,31,75,44,17,29.77,29.56,10,1,0,0.00
2013-10-3,70,58,46,45,35,23,90,48,19,29.60,29.36,21,3,0,0.00
2013-10-4,48,37,27,45,31,20,90,80,65,30.26,29.43,15,3,0,0.04
2013-10-5,58,40,26,22,15,5,71,40,12,30.32,30.05,19,2,0,0.00
2013-10-6,75,49,34,31,18,4,55,31,15,30.29,30.01,7,0,0,0.00
2013-10-7,73,55,38,30,24,19,52,32,14,30.15,29.72,10,2,0,0.00
2013-10-8,73,63,49,27,22,14,40,23,14,29.73,29.40,12,1,0,0.00
2013-10-9,69,57,46,39,31,25,76,40,22,29.77,29.47,15,3,0,0.00
2013-10-10,59,48,40,41,36,24,89,64,37,29.74,29.39,18,3,0,0.00
2013-10-11,63,48,40,41,29,21,89,53,25,29.91,29.35,18,2,0,0.04
2013-10-12,51,44,39,38,36,31,91,75,54,30.17,29.87,19,7,0,0.00
2013-10-13,60,46,32,47,37,29,91,72,45,30.16,29.76,19,5,0,0.02
2013-10-14,58,46,34,43,34,21,95,69,26,30.03,29.65,15,2,0,0.00
2013-10-15,39,34,29,29,24,20,81,68,56,30.34,30.03,8,1,0,0.00
2013-10-16,56,38,28,31,25,20,94,66,27,30.22,29.91,10,1,0,0.00
2013-10-17,51,39,30,29,24,16,73,55,35,30.16,29.90,12,2,0,0.00
2013-10-18,42,33,28,31,27,24,91,78,56,30.26,29.93,13,2,0,0.13
2013-10-19,59,42,26,27,21,17,86,47,23,30.21,29.83,9,1,0,0.00
2013-10-20,54,43,32,35,26,15,91,56,28,30.13,29.71,10,0,0,0.03
2013-10-21,59,39,25,33,26,21,91,65,26,30.30,30.04,5,0,0,0.02
2013-10-22,67,48,34,30,26,22,71,45,23,30.21,29.98,13,1,0,0.00
2013-10-23,66,50,38,30,26,22,61,42,19,30.14,29.94,11,1,0,0.00
2013-10-24,56,45,36,34,31,27,80,60,42,30.23,30.01,7,1,0,0.00
2013-10-25,73,50,30,31,28,24,89,50,17,30.17,29.91,11,0,0,0.00
2013-10-26,60,48,39,34,30,29,73,52,32,30.27,29.95,11,2,0,0.00
2013-10-27,67,52,38,30,21,16,70,33,15,30.04,29.66,10,1,0,0.00
2013-10-28,51,41,30,33,28,21,89,61,42,30.01,29.66,10,1,0,0.00
2013-10-29,52,37,28,34,29,26,94,75,42,30.05,29.79,14,1,0,0.01
2013-10-30,55,39,30,34,28,16,94,69,23,29.90,29.64,16,2,0,0.00
2013-10-31,56,41,29,25,16,12,83,40,18,29.91,29.68,10,2,0,0.00